Great Basin Natl Park, Nevada
Current Conditions -  °F | °C
As of 5:53 AM on Friday 28 Nov 2014 (Local Time) from KELY Reporting Station
Clear Clear  
Wind Chill: 20°   Ceiling: Unl
Heat Index: 28°   Visibility: 10mi
Dew Point: 12°   Wind: 8mph
Humidity: 51%   Direction: 140°SE
Pressure: 30.15"   Gusts: NA
Location:  39°N, 114.25°W
Report Text: KELY 281353Z AUTO 14007KT 10SM CLR M02/M11 A3015 RMK AO2 SLP206 T10221111
Loading
Personal Weather Stations






























Interactive Weather Map New forecast layout! Learn more

10-Day Weather Forecast

Advertisements
Track Severe Weather on mobile